sensor_id;sensor_type;location;lat;lon;timestamp;temperature;humidity
82001;SHT30;71522;50.870;3.524;2023-08-21T00:00:15;18.68;77.91
82001;SHT30;71522;50.870;3.524;2023-08-21T00:02:41;18.84;77.59
82001;SHT30;71522;50.870;3.524;2023-08-21T00:05:07;18.95;76.95
82001;SHT30;71522;50.870;3.524;2023-08-21T00:07:34;18.99;76.14
82001;SHT30;71522;50.870;3.524;2023-08-21T00:10:00;18.88;76.33
82001;SHT30;71522;50.870;3.524;2023-08-21T00:12:25;18.89;76.02
82001;SHT30;71522;50.870;3.524;2023-08-21T00:14:51;18.82;76.17
82001;SHT30;71522;50.870;3.524;2023-08-21T00:17:17;18.79;76.25
82001;SHT30;71522;50.870;3.524;2023-08-21T00:19:43;18.74;76.65
82001;SHT30;71522;50.870;3.524;2023-08-21T00:22:08;18.58;77.32
82001;SHT30;71522;50.870;3.524;2023-08-21T00:24:35;18.53;77.63
82001;SHT30;71522;50.870;3.524;2023-08-21T00:27:01;18.40;77.84
82001;SHT30;71522;50.870;3.524;2023-08-21T00:29:31;18.36;78.52
82001;SHT30;71522;50.870;3.524;2023-08-21T00:31:57;18.38;78.18
82001;SHT30;71522;50.870;3.524;2023-08-21T00:34:22;18.34;78.39
82001;SHT30;71522;50.870;3.524;2023-08-21T00:36:49;18.32;78.53
82001;SHT30;71522;50.870;3.524;2023-08-21T00:39:15;18.34;78.68
82001;SHT30;71522;50.870;3.524;2023-08-21T00:41:41;18.36;78.48
82001;SHT30;71522;50.870;3.524;2023-08-21T00:44:07;18.45;78.17
82001;SHT30;71522;50.870;3.524;2023-08-21T00:46:34;18.41;78.33
82001;SHT30;71522;50.870;3.524;2023-08-21T00:49:00;18.40;77.70
82001;SHT30;71522;50.870;3.524;2023-08-21T00:51:28;18.30;77.68
82001;SHT30;71522;50.870;3.524;2023-08-21T00:53:54;18.24;78.03
82001;SHT30;71522;50.870;3.524;2023-08-21T00:56:19;18.26;78.30
82001;SHT30;71522;50.870;3.524;2023-08-21T00:58:47;18.24;77.50
82001;SHT30;71522;50.870;3.524;2023-08-21T01:01:15;18.16;77.78
82001;SHT30;71522;50.870;3.524;2023-08-21T01:03:43;18.10;76.13
82001;SHT30;71522;50.870;3.524;2023-08-21T01:06:09;18.02;75.95
82001;SHT30;71522;50.870;3.524;2023-08-21T01:14:52;17.76;78.77
82001;SHT30;71522;50.870;3.524;2023-08-21T01:17:37;17.66;78.81
82001;SHT30;71522;50.870;3.524;2023-08-21T01:20:10;17.62;77.73
82001;SHT30;71522;50.870;3.524;2023-08-21T01:22:41;17.55;79.47
82001;SHT30;71522;50.870;3.524;2023-08-21T01:25:16;17.47;79.25
82001;SHT30;71522;50.870;3.524;2023-08-21T01:27:46;17.42;78.15
82001;SHT30;71522;50.870;3.524;2023-08-21T01:30:13;17.39;79.79
82001;SHT30;71522;50.870;3.524;2023-08-21T01:35:24;17.35;79.64
82001;SHT30;71522;50.870;3.524;2023-08-21T01:37:51;17.34;79.60
82001;SHT30;71522;50.870;3.524;2023-08-21T01:40:22;17.37;81.22
82001;SHT30;71522;50.870;3.524;2023-08-21T01:42:47;17.54;81.16
82001;SHT30;71522;50.870;3.524;2023-08-21T01:45:13;17.76;80.30
82001;SHT30;71522;50.870;3.524;2023-08-21T01:47:39;17.93;79.34
82001;SHT30;71522;50.870;3.524;2023-08-21T01:50:05;18.06;78.86
82001;SHT30;71522;50.870;3.524;2023-08-21T01:52:32;18.22;78.70
82001;SHT30;71522;50.870;3.524;2023-08-21T01:54:58;18.24;78.60
82001;SHT30;71522;50.870;3.524;2023-08-21T01:57:23;18.27;78.57
82001;SHT30;71522;50.870;3.524;2023-08-21T01:59:49;18.27;78.68
82001;SHT30;71522;50.870;3.524;2023-08-21T02:02:15;18.32;78.33
82001;SHT30;71522;50.870;3.524;2023-08-21T02:04:41;18.32;78.26
82001;SHT30;71522;50.870;3.524;2023-08-21T02:07:06;18.34;78.16
82001;SHT30;71522;50.870;3.524;2023-08-21T02:09:33;18.36;78.04
82001;SHT30;71522;50.870;3.524;2023-08-21T02:11:59;18.36;77.85
82001;SHT30;71522;50.870;3.524;2023-08-21T02:14:25;18.37;77.64
82001;SHT30;71522;50.870;3.524;2023-08-21T02:16:51;18.38;77.82
82001;SHT30;71522;50.870;3.524;2023-08-21T02:19:17;18.43;77.63
82001;SHT30;71522;50.870;3.524;2023-08-21T02:21:43;18.48;77.43
82001;SHT30;71522;50.870;3.524;2023-08-21T02:24:09;18.43;77.36
82001;SHT30;71522;50.870;3.524;2023-08-21T02:26:34;18.41;77.35
82001;SHT30;71522;50.870;3.524;2023-08-21T02:29:00;18.38;77.47
82001;SHT30;71522;50.870;3.524;2023-08-21T02:31:26;18.30;77.55
82001;SHT30;71522;50.870;3.524;2023-08-21T02:33:51;18.26;77.90
82001;SHT30;71522;50.870;3.524;2023-08-21T02:36:17;18.24;77.79
82001;SHT30;71522;50.870;3.524;2023-08-21T02:38:43;18.24;77.70
82001;SHT30;71522;50.870;3.524;2023-08-21T02:41:08;18.23;77.97
82001;SHT30;71522;50.870;3.524;2023-08-21T02:43:34;18.18;78.05
82001;SHT30;71522;50.870;3.524;2023-08-21T02:46:02;18.14;78.59
82001;SHT30;71522;50.870;3.524;2023-08-21T02:48:49;18.13;78.28
82001;SHT30;71522;50.870;3.524;2023-08-21T02:51:15;18.06;78.01
82001;SHT30;71522;50.870;3.524;2023-08-21T02:53:41;17.99;78.20
82001;SHT30;71522;50.870;3.524;2023-08-21T02:56:07;17.92;78.51
82001;SHT30;71522;50.870;3.524;2023-08-21T02:58:32;17.81;78.78
82001;SHT30;71522;50.870;3.524;2023-08-21T03:00:58;17.75;78.64
82001;SHT30;71522;50.870;3.524;2023-08-21T03:03:27;17.64;79.02
82001;SHT30;71522;50.870;3.524;2023-08-21T03:05:52;17.59;79.21
82001;SHT30;71522;50.870;3.524;2023-08-21T03:08:18;17.48;79.52
82001;SHT30;71522;50.870;3.524;2023-08-21T03:10:44;17.42;79.90
82001;SHT30;71522;50.870;3.524;2023-08-21T03:13:09;17.41;80.22
82001;SHT30;71522;50.870;3.524;2023-08-21T03:15:35;17.39;80.87
82001;SHT30;71522;50.870;3.524;2023-08-21T03:18:01;17.45;81.16
82001;SHT30;71522;50.870;3.524;2023-08-21T03:20:27;17.49;81.02
82001;SHT30;71522;50.870;3.524;2023-08-21T03:22:52;17.49;80.88
82001;SHT30;71522;50.870;3.524;2023-08-21T03:25:18;17.56;80.87
82001;SHT30;71522;50.870;3.524;2023-08-21T03:27:44;17.52;81.03
82001;SHT30;71522;50.870;3.524;2023-08-21T03:30:14;17.55;80.92
82001;SHT30;71522;50.870;3.524;2023-08-21T03:32:40;17.56;80.64
82001;SHT30;71522;50.870;3.524;2023-08-21T03:35:06;17.45;80.98
82001;SHT30;71522;50.870;3.524;2023-08-21T03:37:32;17.42;81.17
82001;SHT30;71522;50.870;3.524;2023-08-21T03:39:58;17.37;81.19
82001;SHT30;71522;50.870;3.524;2023-08-21T03:42:24;17.26;81.44
82001;SHT30;71522;50.870;3.524;2023-08-21T03:44:50;17.17;81.58
82001;SHT30;71522;50.870;3.524;2023-08-21T03:47:16;17.10;81.70
82001;SHT30;71522;50.870;3.524;2023-08-21T03:49:42;17.07;81.68
82001;SHT30;71522;50.870;3.524;2023-08-21T03:52:08;17.04;81.53
82001;SHT30;71522;50.870;3.524;2023-08-21T03:54:33;16.97;81.66
82001;SHT30;71522;50.870;3.524;2023-08-21T03:56:59;16.99;81.67
82001;SHT30;71522;50.870;3.524;2023-08-21T03:59:28;16.99;81.54
82001;SHT30;71522;50.870;3.524;2023-08-21T04:01:56;16.94;81.62
82001;SHT30;71522;50.870;3.524;2023-08-21T04:04:22;16.87;81.67
82001;SHT30;71522;50.870;3.524;2023-08-21T04:06:48;16.83;81.87
82001;SHT30;71522;50.870;3.524;2023-08-21T04:09:14;16.80;82.12
82001;SHT30;71522;50.870;3.524;2023-08-21T04:11:40;16.79;82.31
82001;SHT30;71522;50.870;3.524;2023-08-21T04:14:06;16.80;82.46
82001;SHT30;71522;50.870;3.524;2023-08-21T04:16:32;16.81;82.54
82001;SHT30;71522;50.870;3.524;2023-08-21T04:18:58;16.81;82.17
82001;SHT30;71522;50.870;3.524;2023-08-21T04:21:24;16.81;82.00
82001;SHT30;71522;50.870;3.524;2023-08-21T04:23:49;16.79;81.83
82001;SHT30;71522;50.870;3.524;2023-08-21T04:26:16;16.72;82.41
82001;SHT30;71522;50.870;3.524;2023-08-21T04:28:42;16.69;82.47
82001;SHT30;71522;50.870;3.524;2023-08-21T04:31:08;16.69;82.85
82001;SHT30;71522;50.870;3.524;2023-08-21T04:33:34;16.68;82.97
82001;SHT30;71522;50.870;3.524;2023-08-21T04:36:01;16.60;82.95
82001;SHT30;71522;50.870;3.524;2023-08-21T04:38:27;16.59;82.95
82001;SHT30;71522;50.870;3.524;2023-08-21T04:40:53;16.53;82.93
82001;SHT30;71522;50.870;3.524;2023-08-21T04:43:19;16.51;83.47
82001;SHT30;71522;50.870;3.524;2023-08-21T04:45:52;16.47;83.76
82001;SHT30;71522;50.870;3.524;2023-08-21T04:48:20;16.42;83.76
82001;SHT30;71522;50.870;3.524;2023-08-21T04:50:46;16.38;83.43
82001;SHT30;71522;50.870;3.524;2023-08-21T04:53:12;16.31;83.75
82001;SHT30;71522;50.870;3.524;2023-08-21T04:55:39;16.29;83.72
82001;SHT30;71522;50.870;3.524;2023-08-21T04:58:07;16.28;83.78
82001;SHT30;71522;50.870;3.524;2023-08-21T05:00:33;16.29;83.99
82001;SHT30;71522;50.870;3.524;2023-08-21T05:02:59;16.32;84.01
82001;SHT30;71522;50.870;3.524;2023-08-21T05:05:24;16.32;83.90
82001;SHT30;71522;50.870;3.524;2023-08-21T05:07:52;16.35;84.05
82001;SHT30;71522;50.870;3.524;2023-08-21T05:10:18;16.39;84.06
82001;SHT30;71522;50.870;3.524;2023-08-21T05:12:44;16.39;83.98
82001;SHT30;71522;50.870;3.524;2023-08-21T05:15:11;16.42;84.24
82001;SHT30;71522;50.870;3.524;2023-08-21T05:17:36;16.42;84.34
82001;SHT30;71522;50.870;3.524;2023-08-21T05:20:02;16.41;84.53
82001;SHT30;71522;50.870;3.524;2023-08-21T05:22:28;16.47;84.65
82001;SHT30;71522;50.870;3.524;2023-08-21T05:24:54;16.51;84.70
82001;SHT30;71522;50.870;3.524;2023-08-21T05:27:20;16.55;84.85
82001;SHT30;71522;50.870;3.524;2023-08-21T05:29:46;16.63;84.98
82001;SHT30;71522;50.870;3.524;2023-08-21T05:32:12;16.72;85.05
82001;SHT30;71522;50.870;3.524;2023-08-21T05:34:37;16.79;84.92
82001;SHT30;71522;50.870;3.524;2023-08-21T05:37:03;16.86;84.67
82001;SHT30;71522;50.870;3.524;2023-08-21T05:39:29;16.87;84.65
82001;SHT30;71522;50.870;3.524;2023-08-21T05:41:54;16.86;84.55
82001;SHT30;71522;50.870;3.524;2023-08-21T05:44:20;16.87;84.57
82001;SHT30;71522;50.870;3.524;2023-08-21T05:46:46;16.93;84.64
82001;SHT30;71522;50.870;3.524;2023-08-21T05:49:12;16.86;84.70
82001;SHT30;71522;50.870;3.524;2023-08-21T05:51:38;16.81;84.79
82001;SHT30;71522;50.870;3.524;2023-08-21T05:54:04;16.84;84.83
82001;SHT30;71522;50.870;3.524;2023-08-21T05:56:30;16.93;84.80
82001;SHT30;71522;50.870;3.524;2023-08-21T05:58:56;17.04;84.78
82001;SHT30;71522;50.870;3.524;2023-08-21T06:01:22;17.16;84.60
82001;SHT30;71522;50.870;3.524;2023-08-21T06:03:48;17.26;84.34
82001;SHT30;71522;50.870;3.524;2023-08-21T06:06:13;17.34;84.04
82001;SHT30;71522;50.870;3.524;2023-08-21T06:08:39;17.42;83.73
82001;SHT30;71522;50.870;3.524;2023-08-21T06:11:05;17.49;83.77
82001;SHT30;71522;50.870;3.524;2023-08-21T06:13:31;17.56;83.59
82001;SHT30;71522;50.870;3.524;2023-08-21T06:15:57;17.64;83.74
82001;SHT30;71522;50.870;3.524;2023-08-21T06:18:22;17.78;84.08
82001;SHT30;71522;50.870;3.524;2023-08-21T06:20:50;17.89;83.96
82001;SHT30;71522;50.870;3.524;2023-08-21T06:23:20;17.95;83.43
82001;SHT30;71522;50.870;3.524;2023-08-21T06:25:50;17.99;84.06
82001;SHT30;71522;50.870;3.524;2023-08-21T06:28:15;18.03;84.34
82001;SHT30;71522;50.870;3.524;2023-08-21T06:30:42;18.13;84.94
82001;SHT30;71522;50.870;3.524;2023-08-21T06:33:07;18.16;84.70
82001;SHT30;71522;50.870;3.524;2023-08-21T06:35:36;17.99;84.66
82001;SHT30;71522;50.870;3.524;2023-08-21T06:38:03;17.95;85.38
82001;SHT30;71522;50.870;3.524;2023-08-21T06:40:29;17.97;84.94
82001;SHT30;71522;50.870;3.524;2023-08-21T06:42:54;18.02;84.72
82001;SHT30;71522;50.870;3.524;2023-08-21T06:45:20;18.05;84.79
82001;SHT30;71522;50.870;3.524;2023-08-21T06:47:46;18.09;84.50
82001;SHT30;71522;50.870;3.524;2023-08-21T06:50:12;18.07;84.24
82001;SHT30;71522;50.870;3.524;2023-08-21T06:52:39;18.17;84.69
82001;SHT30;71522;50.870;3.524;2023-08-21T06:55:05;18.17;84.16
82001;SHT30;71522;50.870;3.524;2023-08-21T06:57:31;18.18;84.55
82001;SHT30;71522;50.870;3.524;2023-08-21T06:59:57;18.20;84.82
82001;SHT30;71522;50.870;3.524;2023-08-21T07:02:22;18.20;84.24
82001;SHT30;71522;50.870;3.524;2023-08-21T07:04:48;18.26;84.51
82001;SHT30;71522;50.870;3.524;2023-08-21T07:07:14;18.32;84.58
82001;SHT30;71522;50.870;3.524;2023-08-21T07:09:40;18.44;85.68
82001;SHT30;71522;50.870;3.524;2023-08-21T07:12:06;18.50;84.99
82001;SHT30;71522;50.870;3.524;2023-08-21T07:14:32;18.58;84.99
82001;SHT30;71522;50.870;3.524;2023-08-21T07:16:58;18.71;85.23
82001;SHT30;71522;50.870;3.524;2023-08-21T07:19:24;18.69;84.39
82001;SHT30;71522;50.870;3.524;2023-08-21T07:21:49;18.68;84.48
82001;SHT30;71522;50.870;3.524;2023-08-21T07:24:15;18.72;85.08
82001;SHT30;71522;50.870;3.524;2023-08-21T07:26:41;18.65;84.64
82001;SHT30;71522;50.870;3.524;2023-08-21T07:29:27;18.67;84.75
82001;SHT30;71522;50.870;3.524;2023-08-21T07:31:53;18.75;84.63
82001;SHT30;71522;50.870;3.524;2023-08-21T07:34:18;18.78;85.03
82001;SHT30;71522;50.870;3.524;2023-08-21T07:36:44;18.92;84.13
82001;SHT30;71522;50.870;3.524;2023-08-21T07:39:10;18.98;84.04
82001;SHT30;71522;50.870;3.524;2023-08-21T07:41:36;19.05;83.38
82001;SHT30;71522;50.870;3.524;2023-08-21T07:44:02;19.15;84.35
82001;SHT30;71522;50.870;3.524;2023-08-21T07:46:31;19.22;83.97
82001;SHT30;71522;50.870;3.524;2023-08-21T07:49:00;19.27;83.58
82001;SHT30;71522;50.870;3.524;2023-08-21T07:51:43;19.37;84.97
82001;SHT30;71522;50.870;3.524;2023-08-21T07:54:11;19.50;82.45
82001;SHT30;71522;50.870;3.524;2023-08-21T07:56:37;19.63;82.41
82001;SHT30;71522;50.870;3.524;2023-08-21T07:59:10;19.74;83.14
82001;SHT30;71522;50.870;3.524;2023-08-21T08:01:36;19.67;81.92
82001;SHT30;71522;50.870;3.524;2023-08-21T08:04:05;19.64;83.01
82001;SHT30;71522;50.870;3.524;2023-08-21T08:06:31;19.75;82.25
82001;SHT30;71522;50.870;3.524;2023-08-21T08:09:06;19.73;83.32
82001;SHT30;71522;50.870;3.524;2023-08-21T08:11:32;19.70;83.49
82001;SHT30;71522;50.870;3.524;2023-08-21T08:13:57;19.77;83.11
82001;SHT30;71522;50.870;3.524;2023-08-21T08:16:26;19.85;84.47
82001;SHT30;71522;50.870;3.524;2023-08-21T08:18:52;19.94;82.59
82001;SHT30;71522;50.870;3.524;2023-08-21T08:21:17;19.94;81.68
82001;SHT30;71522;50.870;3.524;2023-08-21T08:23:44;19.91;83.24
82001;SHT30;71522;50.870;3.524;2023-08-21T08:26:09;19.87;82.64
82001;SHT30;71522;50.870;3.524;2023-08-21T08:28:35;19.97;82.50
82001;SHT30;71522;50.870;3.524;2023-08-21T08:31:01;20.02;83.91
82001;SHT30;71522;50.870;3.524;2023-08-21T08:33:27;20.09;83.31
82001;SHT30;71522;50.870;3.524;2023-08-21T08:35:55;20.18;82.29
82001;SHT30;71522;50.870;3.524;2023-08-21T08:38:24;20.25;81.85
82001;SHT30;71522;50.870;3.524;2023-08-21T08:40:51;20.32;80.82
82001;SHT30;71522;50.870;3.524;2023-08-21T08:43:20;20.42;80.00
82001;SHT30;71522;50.870;3.524;2023-08-21T08:45:47;20.50;81.96
82001;SHT30;71522;50.870;3.524;2023-08-21T08:48:15;20.59;81.40
82001;SHT30;71522;50.870;3.524;2023-08-21T08:50:43;20.75;81.08
82001;SHT30;71522;50.870;3.524;2023-08-21T08:53:10;20.81;81.41
82001;SHT30;71522;50.870;3.524;2023-08-21T08:55:36;20.81;80.26
82001;SHT30;71522;50.870;3.524;2023-08-21T08:58:05;20.84;80.12
82001;SHT30;71522;50.870;3.524;2023-08-21T09:00:31;20.88;80.56
82001;SHT30;71522;50.870;3.524;2023-08-21T09:02:57;20.93;79.92
82001;SHT30;71522;50.870;3.524;2023-08-21T09:05:23;21.04;79.22
82001;SHT30;71522;50.870;3.524;2023-08-21T09:10:37;21.27;79.96
82001;SHT30;71522;50.870;3.524;2023-08-21T09:13:17;21.30;79.31
82001;SHT30;71522;50.870;3.524;2023-08-21T09:15:46;21.44;79.74
82001;SHT30;71522;50.870;3.524;2023-08-21T09:18:13;21.52;77.39
82001;SHT30;71522;50.870;3.524;2023-08-21T09:21:02;21.59;78.29
82001;SHT30;71522;50.870;3.524;2023-08-21T09:23:28;21.58;79.18
82001;SHT30;71522;50.870;3.524;2023-08-21T09:25:53;21.78;77.23
82001;SHT30;71522;50.870;3.524;2023-08-21T09:28:22;21.85;79.17
82001;SHT30;71522;50.870;3.524;2023-08-21T09:30:53;21.88;75.87
82001;SHT30;71522;50.870;3.524;2023-08-21T09:33:28;21.97;77.50
82001;SHT30;71522;50.870;3.524;2023-08-21T09:35:55;22.03;79.63
82001;SHT30;71522;50.870;3.524;2023-08-21T09:38:21;22.09;76.68
82001;SHT30;71522;50.870;3.524;2023-08-21T09:40:54;22.09;76.67
82001;SHT30;71522;50.870;3.524;2023-08-21T09:43:24;22.14;78.07
82001;SHT30;71522;50.870;3.524;2023-08-21T09:45:56;22.21;75.46
82001;SHT30;71522;50.870;3.524;2023-08-21T09:48:23;22.18;75.12
82001;SHT30;71522;50.870;3.524;2023-08-21T09:50:54;22.36;73.44
82001;SHT30;71522;50.870;3.524;2023-08-21T09:53:22;22.47;73.58
82001;SHT30;71522;50.870;3.524;2023-08-21T09:55:54;22.60;74.80
82001;SHT30;71522;50.870;3.524;2023-08-21T09:58:21;22.61;73.78
82001;SHT30;71522;50.870;3.524;2023-08-21T10:00:51;22.78;73.11
82001;SHT30;71522;50.870;3.524;2023-08-21T10:03:23;22.94;71.98
82001;SHT30;71522;50.870;3.524;2023-08-21T10:05:50;22.95;70.89
82001;SHT30;71522;50.870;3.524;2023-08-21T10:08:23;23.00;74.21
82001;SHT30;71522;50.870;3.524;2023-08-21T10:10:50;23.15;71.15
82001;SHT30;71522;50.870;3.524;2023-08-21T10:13:20;23.23;69.63
82001;SHT30;71522;50.870;3.524;2023-08-21T10:15:46;23.34;67.36
82001;SHT30;71522;50.870;3.524;2023-08-21T10:18:33;23.53;68.63
82001;SHT30;71522;50.870;3.524;2023-08-21T10:21:18;23.67;67.35
82001;SHT30;71522;50.870;3.524;2023-08-21T10:23:54;23.61;67.16
82001;SHT30;71522;50.870;3.524;2023-08-21T10:26:22;23.71;67.29
82001;SHT30;71522;50.870;3.524;2023-08-21T10:28:56;23.78;64.78
82001;SHT30;71522;50.870;3.524;2023-08-21T10:31:44;23.95;66.00
82001;SHT30;71522;50.870;3.524;2023-08-21T10:34:12;24.07;66.76
82001;SHT30;71522;50.870;3.524;2023-08-21T10:37:10;24.11;71.03
82001;SHT30;71522;50.870;3.524;2023-08-21T10:39:41;24.05;66.39
82001;SHT30;71522;50.870;3.524;2023-08-21T10:42:21;24.04;68.32
82001;SHT30;71522;50.870;3.524;2023-08-21T10:45:10;24.12;61.22
82001;SHT30;71522;50.870;3.524;2023-08-21T10:47:36;24.12;61.98
82001;SHT30;71522;50.870;3.524;2023-08-21T10:50:05;24.24;63.23
82001;SHT30;71522;50.870;3.524;2023-08-21T10:52:42;24.42;62.07
82001;SHT30;71522;50.870;3.524;2023-08-21T10:55:12;24.65;64.54
82001;SHT30;71522;50.870;3.524;2023-08-21T10:57:41;24.70;62.06
82001;SHT30;71522;50.870;3.524;2023-08-21T11:00:19;24.74;65.48
82001;SHT30;71522;50.870;3.524;2023-08-21T11:02:50;24.73;62.76
82001;SHT30;71522;50.870;3.524;2023-08-21T11:05:18;24.79;62.82
82001;SHT30;71522;50.870;3.524;2023-08-21T11:07:46;24.66;62.67
82001;SHT30;71522;50.870;3.524;2023-08-21T11:10:17;24.66;60.07
82001;SHT30;71522;50.870;3.524;2023-08-21T11:12:54;24.76;60.27
82001;SHT30;71522;50.870;3.524;2023-08-21T11:15:27;24.93;60.60
82001;SHT30;71522;50.870;3.524;2023-08-21T11:18:00;25.07;63.13
82001;SHT30;71522;50.870;3.524;2023-08-21T11:20:35;25.27;58.96
82001;SHT30;71522;50.870;3.524;2023-08-21T11:23:03;25.53;59.98
82001;SHT30;71522;50.870;3.524;2023-08-21T11:25:52;25.89;60.20
82001;SHT30;71522;50.870;3.524;2023-08-21T11:28:18;26.14;59.18
82001;SHT30;71522;50.870;3.524;2023-08-21T11:30:44;26.07;56.27
82001;SHT30;71522;50.870;3.524;2023-08-21T11:33:12;25.65;56.82
82001;SHT30;71522;50.870;3.524;2023-08-21T11:35:39;25.48;59.07
82001;SHT30;71522;50.870;3.524;2023-08-21T11:38:22;25.61;60.34
82001;SHT30;71522;50.870;3.524;2023-08-21T11:40:56;25.71;56.74
82001;SHT30;71522;50.870;3.524;2023-08-21T11:46:02;26.13;60.54
82001;SHT30;71522;50.870;3.524;2023-08-21T11:48:28;26.44;56.58
82001;SHT30;71522;50.870;3.524;2023-08-21T11:50:54;26.52;55.88
82001;SHT30;71522;50.870;3.524;2023-08-21T11:53:31;26.44;56.63
82001;SHT30;71522;50.870;3.524;2023-08-21T11:55:57;26.09;55.83
82001;SHT30;71522;50.870;3.524;2023-08-21T11:58:23;25.97;59.08
82001;SHT30;71522;50.870;3.524;2023-08-21T12:01:07;26.03;56.88
82001;SHT30;71522;50.870;3.524;2023-08-21T12:03:37;26.17;54.81
82001;SHT30;71522;50.870;3.524;2023-08-21T12:06:08;26.34;56.00
82001;SHT30;71522;50.870;3.524;2023-08-21T12:08:34;26.47;55.77
82001;SHT30;71522;50.870;3.524;2023-08-21T12:11:00;26.68;55.18
82001;SHT30;71522;50.870;3.524;2023-08-21T12:13:27;26.91;58.63
82001;SHT30;71522;50.870;3.524;2023-08-21T12:15:52;27.15;53.41
82001;SHT30;71522;50.870;3.524;2023-08-21T12:18:18;27.35;57.03
82001;SHT30;71522;50.870;3.524;2023-08-21T12:20:44;27.09;57.13
82001;SHT30;71522;50.870;3.524;2023-08-21T12:23:10;26.77;56.16
82001;SHT30;71522;50.870;3.524;2023-08-21T12:25:36;26.77;53.68
82001;SHT30;71522;50.870;3.524;2023-08-21T12:28:08;26.67;55.69
82001;SHT30;71522;50.870;3.524;2023-08-21T12:30:34;26.64;56.82
82001;SHT30;71522;50.870;3.524;2023-08-21T12:33:00;26.87;51.42
82001;SHT30;71522;50.870;3.524;2023-08-21T12:35:26;26.82;57.87
82001;SHT30;71522;50.870;3.524;2023-08-21T12:37:56;26.72;55.87
82001;SHT30;71522;50.870;3.524;2023-08-21T12:40:22;26.89;55.92
82001;SHT30;71522;50.870;3.524;2023-08-21T12:42:48;26.77;53.54
82001;SHT30;71522;50.870;3.524;2023-08-21T12:45:16;26.74;54.43
82001;SHT30;71522;50.870;3.524;2023-08-21T12:47:41;26.96;52.82
82001;SHT30;71522;50.870;3.524;2023-08-21T12:50:08;27.03;51.92
82001;SHT30;71522;50.870;3.524;2023-08-21T12:52:34;27.02;55.75
82001;SHT30;71522;50.870;3.524;2023-08-21T12:55:00;27.12;55.06
82001;SHT30;71522;50.870;3.524;2023-08-21T12:57:29;27.16;53.33
82001;SHT30;71522;50.870;3.524;2023-08-21T12:59:54;27.20;56.75
82001;SHT30;71522;50.870;3.524;2023-08-21T13:02:22;27.19;54.19
82001;SHT30;71522;50.870;3.524;2023-08-21T13:04:49;27.25;55.91
82001;SHT30;71522;50.870;3.524;2023-08-21T13:07:15;27.35;55.87
82001;SHT30;71522;50.870;3.524;2023-08-21T13:09:43;27.26;56.11
82001;SHT30;71522;50.870;3.524;2023-08-21T13:12:10;27.40;56.08
82001;SHT30;71522;50.870;3.524;2023-08-21T13:14:36;27.60;54.07
82001;SHT30;71522;50.870;3.524;2023-08-21T13:17:01;27.78;52.59
82001;SHT30;71522;50.870;3.524;2023-08-21T13:19:27;27.87;48.97
82001;SHT30;71522;50.870;3.524;2023-08-21T13:21:53;27.94;51.83
82001;SHT30;71522;50.870;3.524;2023-08-21T13:24:20;27.90;50.30
82001;SHT30;71522;50.870;3.524;2023-08-21T13:26:49;28.02;49.58
82001;SHT30;71522;50.870;3.524;2023-08-21T13:29:14;27.73;48.80
82001;SHT30;71522;50.870;3.524;2023-08-21T13:31:40;27.98;52.43
82001;SHT30;71522;50.870;3.524;2023-08-21T13:34:06;28.31;53.76
82001;SHT30;71522;50.870;3.524;2023-08-21T13:36:32;28.06;48.98
82001;SHT30;71522;50.870;3.524;2023-08-21T13:38:58;27.88;49.41
82001;SHT30;71522;50.870;3.524;2023-08-21T13:41:23;27.93;52.17
82001;SHT30;71522;50.870;3.524;2023-08-21T13:43:50;27.91;54.22
82001;SHT30;71522;50.870;3.524;2023-08-21T13:46:19;27.70;52.49
82001;SHT30;71522;50.870;3.524;2023-08-21T13:48:45;27.67;50.35
82001;SHT30;71522;50.870;3.524;2023-08-21T13:51:10;27.90;49.42
82001;SHT30;71522;50.870;3.524;2023-08-21T13:53:36;27.88;47.24
82001;SHT30;71522;50.870;3.524;2023-08-21T13:56:05;28.04;49.06
82001;SHT30;71522;50.870;3.524;2023-08-21T13:58:34;27.76;49.29
82001;SHT30;71522;50.870;3.524;2023-08-21T14:01:00;28.11;48.90
82001;SHT30;71522;50.870;3.524;2023-08-21T14:03:25;28.70;52.41
82001;SHT30;71522;50.870;3.524;2023-08-21T14:05:51;29.11;51.01
82001;SHT30;71522;50.870;3.524;2023-08-21T14:08:17;29.21;50.09
82001;SHT30;71522;50.870;3.524;2023-08-21T14:10:43;28.96;47.86
82001;SHT30;71522;50.870;3.524;2023-08-21T14:13:09;28.99;49.94
82001;SHT30;71522;50.870;3.524;2023-08-21T14:15:35;29.18;47.46
82001;SHT30;71522;50.870;3.524;2023-08-21T14:18:05;29.10;50.44
82001;SHT30;71522;50.870;3.524;2023-08-21T14:20:31;28.97;51.23
82001;SHT30;71522;50.870;3.524;2023-08-21T14:22:56;28.80;48.48
82001;SHT30;71522;50.870;3.524;2023-08-21T14:25:22;28.72;50.00
82001;SHT30;71522;50.870;3.524;2023-08-21T14:27:48;28.15;47.81
82001;SHT30;71522;50.870;3.524;2023-08-21T14:30:21;27.50;54.04
82001;SHT30;71522;50.870;3.524;2023-08-21T14:32:46;26.89;52.42
82001;SHT30;71522;50.870;3.524;2023-08-21T14:35:12;26.36;52.13
82001;SHT30;71522;50.870;3.524;2023-08-21T14:37:38;25.97;53.00
82001;SHT30;71522;50.870;3.524;2023-08-21T14:40:07;26.51;50.56
82001;SHT30;71522;50.870;3.524;2023-08-21T14:42:34;27.32;55.38
82001;SHT30;71522;50.870;3.524;2023-08-21T14:45:00;28.15;56.34
82001;SHT30;71522;50.870;3.524;2023-08-21T14:47:26;28.94;53.55
82001;SHT30;71522;50.870;3.524;2023-08-21T14:49:52;29.48;48.07
82001;SHT30;71522;50.870;3.524;2023-08-21T14:52:18;29.44;48.45
82001;SHT30;71522;50.870;3.524;2023-08-21T14:54:43;29.32;44.73
82001;SHT30;71522;50.870;3.524;2023-08-21T14:57:09;29.27;48.66
82001;SHT30;71522;50.870;3.524;2023-08-21T14:59:35;29.34;48.96
82001;SHT30;71522;50.870;3.524;2023-08-21T15:02:01;29.61;48.34
82001;SHT30;71522;50.870;3.524;2023-08-21T15:04:33;30.02;47.02
82001;SHT30;71522;50.870;3.524;2023-08-21T15:07:02;29.83;49.09
82001;SHT30;71522;50.870;3.524;2023-08-21T15:09:28;29.75;44.69
82001;SHT30;71522;50.870;3.524;2023-08-21T15:11:54;30.06;48.81
82001;SHT30;71522;50.870;3.524;2023-08-21T15:14:23;30.23;44.67
82001;SHT30;71522;50.870;3.524;2023-08-21T15:16:49;30.31;45.89
82001;SHT30;71522;50.870;3.524;2023-08-21T15:19:18;31.06;43.65
82001;SHT30;71522;50.870;3.524;2023-08-21T15:21:44;31.66;43.64
82001;SHT30;71522;50.870;3.524;2023-08-21T15:24:14;31.43;42.24
82001;SHT30;71522;50.870;3.524;2023-08-21T15:26:39;31.59;47.08
82001;SHT30;71522;50.870;3.524;2023-08-21T15:29:05;32.01;42.15
82001;SHT30;71522;50.870;3.524;2023-08-21T15:31:31;32.10;43.04
82001;SHT30;71522;50.870;3.524;2023-08-21T15:33:57;32.48;40.49
82001;SHT30;71522;50.870;3.524;2023-08-21T15:36:23;32.12;44.60
82001;SHT30;71522;50.870;3.524;2023-08-21T15:38:49;32.31;42.31
82001;SHT30;71522;50.870;3.524;2023-08-21T15:41:15;32.14;40.35
82001;SHT30;71522;50.870;3.524;2023-08-21T15:43:41;32.36;44.29
82001;SHT30;71522;50.870;3.524;2023-08-21T15:46:07;33.40;43.76